createdAt,value
2019-02-22T00:00:44.940Z,19.00
2019-02-22T00:01:44.948Z,18.50
2019-02-22T00:02:44.955Z,19.00
2019-02-22T00:03:44.950Z,19.50
2019-02-22T00:04:44.915Z,21.40
2019-02-22T00:05:45.005Z,21.10
2019-02-22T00:06:44.920Z,20.20
2019-02-22T00:07:44.877Z,18.70
2019-02-22T00:08:44.876Z,20.80
2019-02-22T00:09:49.385Z,19.50
2019-02-22T00:10:44.898Z,22.40
2019-02-22T00:11:44.827Z,21.40
2019-02-22T00:12:44.821Z,21.60
2019-02-22T00:13:44.828Z,22.90
2019-02-22T00:14:44.863Z,24.80
2019-02-22T00:15:44.777Z,23.60
2019-02-22T00:16:44.785Z,25.40
2019-02-22T00:17:44.780Z,23.30
2019-02-22T00:18:44.798Z,23.70
2019-02-22T00:19:45.749Z,22.60
2019-02-22T00:20:44.758Z,23.10
2019-02-22T00:21:44.722Z,23.20
2019-02-22T00:22:44.715Z,23.60
2019-02-22T00:23:44.705Z,23.20
2019-02-22T00:24:44.700Z,24.20
2019-02-22T00:25:44.744Z,21.50
2019-02-22T00:26:44.716Z,20.10
2019-02-22T00:27:44.644Z,21.00
2019-02-22T00:28:45.276Z,20.90
2019-02-22T00:29:44.684Z,17.90
2019-02-22T00:30:44.641Z,19.60
2019-02-22T00:31:45.612Z,19.40
2019-02-22T00:32:44.595Z,17.70
2019-02-22T00:33:44.583Z,19.30
2019-02-22T00:34:44.809Z,20.00
2019-02-22T00:35:44.616Z,18.70
2019-02-22T00:36:44.618Z,19.10
2019-02-22T00:37:44.542Z,17.40
2019-02-22T00:38:45.520Z,18.70
2019-02-22T00:39:44.540Z,17.60
2019-02-22T00:40:44.521Z,17.50
2019-02-22T00:41:45.231Z,16.50
2019-02-22T00:42:44.476Z,15.10
2019-02-22T00:43:44.548Z,16.80
2019-02-22T00:44:44.465Z,15.60
2019-02-22T00:45:44.471Z,15.70
2019-02-22T00:46:44.443Z,13.10
2019-02-22T00:47:44.425Z,14.10
2019-02-22T00:48:44.412Z,14.10
2019-02-22T00:49:46.308Z,14.10
2019-02-22T00:50:44.401Z,15.30
2019-02-22T00:51:44.425Z,14.40
2019-02-22T00:52:44.369Z,15.70
2019-02-22T00:53:44.363Z,14.50
2019-02-22T00:54:44.450Z,16.10
2019-02-22T00:55:44.351Z,16.10
2019-02-22T00:56:46.321Z,16.80
2019-02-22T00:57:44.354Z,17.70
2019-02-22T00:58:44.315Z,17.10
2019-02-22T00:59:45.274Z,20.40
2019-02-22T01:00:44.281Z,18.60
2019-02-22T01:01:44.284Z,20.00
2019-02-22T01:02:44.250Z,18.80
2019-02-22T01:03:44.275Z,17.70
2019-02-22T01:04:44.237Z,17.20
2019-02-22T01:05:44.222Z,19.30
2019-02-22T01:06:44.272Z,17.60
2019-02-22T01:07:44.217Z,20.30
2019-02-22T01:08:44.199Z,19.40
2019-02-22T01:09:44.212Z,20.00
2019-02-22T01:10:44.165Z,17.90
2019-02-22T01:11:44.193Z,19.00
2019-02-22T01:12:44.785Z,19.10
2019-02-22T01:13:44.181Z,20.30
2019-02-22T01:14:44.126Z,20.10
2019-02-22T01:15:44.118Z,18.60
2019-02-22T01:16:44.117Z,18.40
2019-02-22T01:17:44.096Z,19.10
2019-02-22T01:18:44.165Z,16.90
2019-02-22T01:19:44.062Z,17.70
2019-02-22T01:20:54.073Z,18.50
2019-02-22T01:21:44.041Z,18.90
2019-02-22T01:22:44.054Z,18.60
2019-02-22T01:23:44.040Z,19.70
2019-02-22T01:24:44.006Z,18.40
2019-02-22T01:25:44.016Z,15.70
2019-02-22T01:26:43.985Z,19.20
2019-02-22T01:27:44.029Z,16.00
2019-02-22T01:28:43.965Z,20.70
2019-02-22T01:29:43.946Z,18.20
2019-02-22T01:30:43.947Z,18.50
2019-02-22T01:31:43.963Z,21.20
2019-02-22T01:32:43.939Z,19.50
2019-02-22T01:33:43.950Z,20.30
2019-02-22T01:34:43.909Z,18.90
2019-02-22T01:35:43.892Z,20.70
2019-02-22T01:36:43.879Z,18.00
2019-02-22T01:37:43.877Z,18.80
2019-02-22T01:38:43.906Z,18.20
2019-02-22T01:39:43.866Z,18.30
2019-02-22T01:40:44.282Z,18.00
2019-02-22T01:41:43.818Z,19.40
2019-02-22T01:42:43.808Z,18.50
2019-02-22T01:43:43.793Z,18.80
2019-02-22T01:44:43.847Z,15.70
2019-02-22T01:45:43.766Z,15.70
2019-02-22T01:46:43.773Z,17.00
2019-02-22T01:47:43.750Z,13.90
2019-02-22T01:48:43.734Z,13.80
2019-02-22T01:49:43.727Z,13.90
2019-02-22T01:50:43.779Z,12.60
2019-02-22T01:51:43.707Z,13.00
2019-02-22T01:52:43.706Z,13.50
2019-02-22T01:53:43.678Z,13.70
2019-02-22T01:54:43.673Z,11.70
2019-02-22T01:55:43.702Z,12.00
2019-02-22T01:56:43.663Z,13.10
2019-02-22T01:57:43.655Z,12.70
2019-02-22T01:58:48.852Z,14.90
2019-02-22T01:59:45.224Z,12.30
2019-02-22T02:00:43.607Z,13.80
2019-02-22T02:01:43.607Z,21.90
2019-02-22T02:02:43.610Z,18.60
2019-02-22T02:03:43.572Z,18.10
2019-02-22T02:04:43.559Z,17.80
2019-02-22T02:05:43.554Z,17.70
2019-02-22T02:06:43.570Z,16.90
2019-02-22T02:07:43.545Z,22.90
2019-02-22T02:08:43.513Z,28.60
2019-02-22T02:09:43.529Z,51.90
2019-02-22T02:10:53.630Z,69.10
2019-02-22T02:11:44.522Z,108.60
2019-02-22T02:12:43.483Z,96.00
2019-02-22T02:13:43.458Z,205.70
2019-02-22T02:14:43.448Z,164.80
2019-02-22T02:15:43.440Z,141.40
2019-02-22T02:16:43.424Z,158.50
2019-02-22T02:17:43.431Z,153.00
2019-02-22T02:18:43.430Z,178.20
2019-02-22T02:19:43.388Z,132.60
2019-02-22T02:20:43.403Z,159.50
2019-02-22T02:21:43.378Z,185.20
2019-02-22T02:22:43.387Z,147.20
2019-02-22T02:23:43.349Z,192.10
2019-02-22T02:24:43.328Z,206.40
2019-02-22T02:25:43.349Z,141.80
2019-02-22T02:26:43.322Z,155.90
2019-02-22T02:27:43.324Z,162.70
2019-02-22T02:28:43.306Z,109.40
2019-02-22T02:29:43.326Z,112.40
2019-02-22T02:30:43.323Z,139.00
2019-02-22T02:31:43.269Z,74.70
2019-02-22T02:32:43.263Z,92.20
2019-02-22T02:33:43.245Z,81.90
2019-02-22T02:34:43.248Z,37.90
2019-02-22T02:35:43.239Z,44.20
2019-02-22T02:36:43.206Z,27.40
2019-02-22T02:37:43.197Z,23.30
2019-02-22T02:38:43.205Z,31.70
2019-02-22T02:39:43.160Z,29.00
2019-02-22T02:40:43.178Z,33.30
2019-02-22T02:41:43.148Z,29.30
2019-02-22T02:42:43.131Z,26.10
2019-02-22T02:43:43.119Z,20.40
2019-02-22T02:44:43.163Z,18.70
2019-02-22T02:45:43.099Z,16.90
2019-02-22T02:46:43.101Z,19.20
2019-02-22T02:47:43.124Z,18.30
2019-02-22T02:48:43.057Z,18.10
2019-02-22T02:49:43.096Z,18.30
2019-02-22T02:50:43.045Z,17.80
2019-02-22T02:51:43.038Z,15.50
2019-02-22T02:52:43.026Z,12.30
2019-02-22T02:53:43.044Z,13.00
2019-02-22T02:54:43.001Z,13.20
2019-02-22T02:55:42.999Z,11.40
2019-02-22T02:56:46.088Z,10.90
2019-02-22T02:57:43.006Z,8.80
2019-02-22T02:58:42.963Z,9.50
2019-02-22T02:59:42.968Z,9.10
2019-02-22T03:00:42.950Z,9.30
2019-02-22T03:01:42.921Z,8.80
2019-02-22T03:02:42.938Z,8.60
2019-02-22T03:03:42.925Z,7.60
2019-02-22T03:04:42.896Z,7.70
2019-02-22T03:05:42.899Z,8.00
2019-02-22T03:06:42.865Z,9.30
2019-02-22T03:07:42.870Z,9.70
2019-02-22T03:08:42.885Z,11.70
2019-02-22T03:09:42.847Z,9.40
2019-02-22T03:10:42.812Z,9.40
2019-02-22T03:11:42.816Z,8.60
2019-02-22T03:12:42.809Z,8.20
2019-02-22T03:13:42.784Z,10.40
2019-02-22T03:14:42.777Z,9.40
2019-02-22T03:15:42.768Z,9.70
2019-02-22T03:16:42.772Z,11.70
2019-02-22T03:17:42.736Z,11.10
2019-02-22T03:18:42.784Z,15.90
2019-02-22T03:19:42.729Z,14.80
2019-02-22T03:20:42.706Z,11.70
2019-02-22T03:21:42.696Z,13.90
2019-02-22T03:22:42.705Z,13.20
2019-02-22T03:23:42.705Z,10.40
2019-02-22T03:24:42.659Z,11.80
2019-02-22T03:25:42.687Z,9.50
2019-02-22T03:26:42.637Z,9.40
2019-02-22T03:27:42.662Z,9.30
2019-02-22T03:28:42.620Z,10.00
2019-02-22T03:29:42.603Z,12.70
2019-02-22T03:30:42.641Z,12.30
2019-02-22T03:31:42.582Z,13.80
2019-02-22T03:32:42.585Z,38.00
2019-02-22T03:33:42.630Z,95.10
2019-02-22T03:34:42.563Z,93.20
2019-02-22T03:35:42.532Z,49.60
2019-02-22T03:36:42.523Z,41.30
2019-02-22T03:37:42.522Z,90.90
2019-02-22T03:38:42.523Z,85.60
2019-02-22T03:39:42.494Z,108.50
2019-02-22T03:40:42.522Z,126.30
2019-02-22T03:41:42.475Z,85.90
2019-02-22T03:42:42.526Z,107.60
2019-02-22T03:43:42.496Z,23.40
2019-02-22T03:44:42.442Z,11.10
2019-02-22T03:45:42.432Z,11.40
2019-02-22T03:46:42.437Z,9.10
2019-02-22T03:47:42.418Z,6.10
2019-02-22T03:48:42.396Z,7.10
2019-02-22T03:49:42.445Z,7.00
2019-02-22T03:50:42.369Z,6.20
2019-02-22T03:51:42.367Z,6.40
2019-02-22T03:52:42.379Z,6.80
2019-02-22T03:53:42.343Z,7.10
2019-02-22T03:54:42.347Z,5.10
2019-02-22T03:55:42.316Z,5.70
2019-02-22T03:56:42.312Z,5.20
2019-02-22T03:57:42.294Z,6.00
2019-02-22T03:58:43.224Z,4.70
2019-02-22T03:59:42.294Z,5.30
2019-02-22T04:00:42.263Z,5.00
2019-02-22T04:01:42.253Z,4.70
2019-02-22T04:02:42.242Z,5.30
2019-02-22T04:03:42.234Z,4.60
2019-02-22T04:04:42.244Z,4.00
2019-02-22T04:05:42.234Z,3.70
2019-02-22T04:06:42.205Z,3.40
2019-02-22T04:07:42.187Z,4.50
2019-02-22T04:08:42.168Z,6.60
2019-02-22T04:09:42.158Z,5.70
2019-02-22T04:10:42.205Z,7.20
2019-02-22T04:11:45.788Z,6.20
2019-02-22T04:12:42.121Z,5.20
2019-02-22T04:13:42.109Z,5.90
2019-02-22T04:14:42.111Z,6.10
2019-02-22T04:15:42.090Z,6.30
2019-02-22T04:16:42.110Z,5.60
2019-02-22T04:17:42.079Z,7.30
2019-02-22T04:18:42.069Z,7.30
2019-02-22T04:19:42.051Z,8.80
2019-02-22T04:20:42.038Z,6.20
2019-02-22T04:21:42.057Z,5.30
2019-02-22T04:22:44.387Z,6.50
2019-02-22T04:23:42.027Z,6.00
2019-02-22T04:24:41.985Z,5.80
2019-02-22T04:25:41.976Z,5.90
2019-02-22T04:26:41.969Z,6.40
2019-02-22T04:27:41.977Z,5.50
2019-02-22T04:28:41.945Z,5.20
2019-02-22T04:29:42.782Z,7.00
2019-02-22T04:30:41.930Z,9.90
2019-02-22T04:31:41.933Z,8.40
2019-02-22T04:32:41.930Z,8.10
2019-02-22T04:33:41.893Z,7.90
2019-02-22T04:34:41.874Z,7.60
2019-02-22T04:35:41.875Z,7.30
2019-02-22T04:36:41.870Z,6.80
2019-02-22T04:37:41.864Z,9.10
2019-02-22T04:38:41.836Z,7.80
2019-02-22T04:39:41.858Z,8.70
2019-02-22T04:40:41.819Z,7.60
2019-02-22T04:41:41.797Z,8.30
2019-02-22T04:42:41.798Z,9.40
2019-02-22T04:43:41.794Z,7.70
2019-02-22T04:44:41.785Z,8.00
2019-02-22T04:45:42.740Z,7.60
2019-02-22T04:46:42.276Z,6.70
2019-02-22T04:48:02.741Z,6.00
2019-02-22T04:48:41.759Z,6.10
2019-02-22T04:49:41.712Z,5.40
2019-02-22T04:50:41.705Z,5.20
2019-02-22T04:51:41.702Z,6.50
2019-02-22T04:52:41.730Z,6.20
2019-02-22T04:53:41.662Z,6.10
2019-02-22T04:54:41.673Z,6.00
2019-02-22T04:55:41.644Z,5.70
2019-02-22T04:56:41.640Z,6.00
2019-02-22T04:57:41.618Z,4.90
2019-02-22T04:58:41.643Z,5.30
2019-02-22T04:59:41.619Z,5.40
2019-02-22T05:00:41.618Z,5.40
2019-02-22T05:01:41.587Z,6.20
2019-02-22T05:02:41.613Z,5.40
2019-02-22T05:03:41.548Z,5.30
2019-02-22T05:04:41.558Z,5.80
2019-02-22T05:05:41.609Z,5.50
2019-02-22T05:06:41.519Z,6.20
2019-02-22T05:07:41.507Z,4.50
2019-02-22T05:08:41.515Z,4.70
2019-02-22T05:09:41.495Z,5.40
2019-02-22T05:10:41.496Z,4.60
2019-02-22T05:11:41.530Z,5.60
2019-02-22T05:12:41.471Z,4.70
2019-02-22T05:13:41.470Z,4.80
2019-02-22T05:14:41.517Z,4.50
2019-02-22T05:15:41.445Z,3.80
2019-02-22T05:16:41.417Z,4.50
2019-02-22T05:17:41.444Z,3.60
2019-02-22T05:18:41.386Z,3.90
2019-02-22T05:19:41.385Z,4.10
2019-02-22T05:20:41.364Z,3.80
2019-02-22T05:21:41.378Z,3.90
2019-02-22T05:22:41.343Z,3.50
2019-02-22T05:23:41.368Z,3.80
2019-02-22T05:24:41.316Z,3.30
2019-02-22T05:25:41.307Z,4.10
2019-02-22T05:26:41.326Z,3.40
2019-02-22T05:27:41.283Z,3.40
2019-02-22T05:28:41.264Z,3.20
2019-02-22T05:29:41.268Z,3.70
2019-02-22T05:30:41.286Z,3.10
2019-02-22T05:31:41.247Z,3.70
2019-02-22T05:32:41.251Z,3.30
2019-02-22T05:33:41.220Z,3.10
2019-02-22T05:34:41.211Z,4.60
2019-02-22T05:35:41.198Z,4.60
2019-02-22T05:36:44.290Z,4.40
2019-02-22T05:37:41.196Z,4.10
2019-02-22T05:38:41.174Z,3.70
2019-02-22T05:39:41.147Z,4.00
2019-02-22T05:40:41.136Z,5.00
2019-02-22T05:41:41.126Z,4.90
2019-02-22T05:42:41.139Z,4.90
2019-02-22T05:43:41.172Z,4.70
2019-02-22T05:44:41.091Z,4.80
2019-02-22T05:45:41.080Z,4.20
2019-02-22T05:46:41.078Z,4.40
2019-02-22T05:47:41.061Z,4.30
2019-02-22T05:48:41.059Z,4.50
2019-02-22T05:49:41.053Z,3.90
2019-02-22T05:50:41.053Z,4.00
2019-02-22T05:51:41.018Z,3.80
2019-02-22T05:52:41.009Z,3.50
2019-02-22T05:53:41.002Z,3.80
2019-02-22T05:54:41.039Z,3.30
2019-02-22T05:55:43.997Z,2.60
2019-02-22T05:56:41.001Z,2.90
2019-02-22T05:57:40.953Z,2.70
2019-02-22T05:58:40.951Z,2.40
2019-02-22T05:59:40.928Z,2.30
2019-02-22T06:00:40.937Z,2.30
2019-02-22T06:01:40.902Z,2.20
2019-02-22T06:02:40.887Z,2.50
2019-02-22T06:03:40.932Z,2.40
2019-02-22T06:04:40.877Z,1.80
2019-02-22T06:05:40.947Z,2.50
2019-02-22T06:06:40.850Z,2.60
2019-02-22T06:07:40.831Z,2.80
2019-02-22T06:08:40.855Z,2.70
2019-02-22T06:09:40.810Z,2.60
2019-02-22T06:10:40.856Z,2.30
2019-02-22T06:11:40.820Z,2.60
2019-02-22T06:12:40.777Z,2.80
2019-02-22T06:13:40.769Z,3.50
2019-02-22T06:14:40.858Z,2.80
2019-02-22T06:15:41.728Z,4.10
2019-02-22T06:16:40.760Z,2.80
2019-02-22T06:17:40.725Z,3.70
2019-02-22T06:18:40.740Z,3.60
2019-02-22T06:19:40.706Z,4.40
2019-02-22T06:20:40.697Z,4.50
2019-02-22T06:21:40.716Z,4.20
2019-02-22T06:22:40.669Z,3.70
2019-02-22T06:23:40.661Z,4.20
2019-02-22T06:24:40.676Z,5.10
2019-02-22T06:25:40.637Z,4.00
2019-02-22T06:26:40.622Z,4.70
2019-02-22T06:27:40.644Z,6.70
2019-02-22T06:28:40.604Z,6.00
2019-02-22T06:29:40.598Z,4.90
2019-02-22T06:30:40.601Z,5.30
2019-02-22T06:31:40.666Z,6.10
2019-02-22T06:32:42.264Z,6.60
2019-02-22T06:33:40.561Z,6.30
2019-02-22T06:34:40.580Z,7.30
2019-02-22T06:35:40.532Z,7.00
2019-02-22T06:36:40.507Z,8.30
2019-02-22T06:37:40.520Z,7.90
2019-02-22T06:38:40.510Z,6.30
2019-02-22T06:39:40.482Z,7.80
2019-02-22T06:40:40.463Z,5.80
2019-02-22T06:41:40.465Z,4.70
2019-02-22T06:42:45.785Z,5.00
2019-02-22T06:43:41.477Z,5.20
2019-02-22T06:44:40.428Z,5.00
2019-02-22T06:45:40.412Z,5.10
2019-02-22T06:46:40.413Z,5.20
2019-02-22T06:47:40.400Z,5.60
2019-02-22T06:48:40.373Z,5.00
2019-02-22T06:49:40.420Z,5.50
2019-02-22T06:50:40.386Z,6.30
2019-02-22T06:51:40.341Z,5.80
2019-02-22T06:52:40.333Z,6.90
2019-02-22T06:53:40.318Z,6.80
2019-02-22T06:54:40.312Z,6.10
2019-02-22T06:55:40.324Z,8.70
2019-02-22T06:56:40.309Z,6.80
2019-02-22T06:57:40.276Z,8.40
2019-02-22T06:58:40.267Z,11.50
2019-02-22T06:59:40.274Z,11.70
2019-02-22T07:00:40.239Z,8.00
2019-02-22T07:01:40.231Z,8.30
2019-02-22T07:02:40.246Z,8.10
2019-02-22T07:03:40.205Z,5.90
2019-02-22T07:04:40.198Z,5.70
2019-02-22T07:05:40.196Z,5.50
2019-02-22T07:06:40.175Z,5.70
2019-02-22T07:07:40.171Z,5.80
2019-02-22T07:08:40.184Z,5.80
2019-02-22T07:09:40.143Z,6.00
2019-02-22T07:10:40.161Z,5.60
2019-02-22T07:11:40.117Z,5.00
2019-02-22T07:12:40.111Z,4.70
2019-02-22T07:13:40.103Z,5.00
2019-02-22T07:14:40.085Z,5.40
2019-02-22T07:15:40.104Z,6.30
2019-02-22T07:16:40.071Z,4.70
2019-02-22T07:17:40.059Z,5.30
2019-02-22T07:18:40.042Z,4.90
2019-02-22T07:19:40.031Z,5.30
2019-02-22T07:20:40.021Z,4.90
2019-02-22T07:21:51.895Z,4.30
2019-02-22T07:22:40.008Z,4.80
2019-02-22T07:23:39.993Z,4.50
2019-02-22T07:24:39.975Z,5.20
2019-02-22T07:25:39.971Z,4.50
2019-02-22T07:26:39.952Z,4.10
2019-02-22T07:27:39.951Z,4.90
2019-02-22T07:28:39.948Z,3.80
2019-02-22T07:29:39.958Z,4.00
2019-02-22T07:30:39.916Z,4.20
2019-02-22T07:31:39.899Z,3.90
2019-02-22T07:32:40.046Z,3.80
2019-02-22T07:33:39.874Z,3.60
2019-02-22T07:34:39.891Z,3.40
2019-02-22T07:35:39.854Z,3.50
2019-02-22T07:36:39.839Z,3.30
2019-02-22T07:37:39.835Z,3.10
2019-02-22T07:38:39.846Z,3.30
2019-02-22T07:39:39.810Z,3.60
2019-02-22T07:40:39.827Z,3.60
2019-02-22T07:41:39.785Z,4.60
2019-02-22T07:42:39.775Z,3.60
2019-02-22T07:43:39.771Z,3.80
2019-02-22T07:44:39.771Z,2.80
2019-02-22T07:45:39.748Z,2.90
2019-02-22T07:46:39.757Z,4.10
2019-02-22T07:47:39.719Z,3.70
2019-02-22T07:48:39.702Z,3.10
2019-02-22T07:49:39.695Z,4.90
2019-02-22T07:50:39.710Z,3.70
2019-02-22T07:51:39.666Z,4.00
2019-02-22T07:52:39.692Z,3.40
2019-02-22T07:53:39.644Z,3.50
2019-02-22T07:54:39.636Z,3.80
2019-02-22T07:55:39.629Z,4.50
2019-02-22T07:56:39.728Z,4.00
2019-02-22T07:57:40.234Z,3.70
2019-02-22T07:58:39.611Z,3.60
2019-02-22T07:59:39.582Z,4.20
2019-02-22T08:00:39.567Z,3.50
2019-02-22T08:01:47.303Z,3.30
2019-02-22T08:02:40.551Z,3.40
2019-02-22T08:03:39.549Z,3.00
2019-02-22T08:04:39.549Z,3.30
2019-02-22T08:05:39.515Z,2.80
2019-02-22T08:06:42.336Z,3.10
2019-02-22T08:07:39.523Z,4.20
2019-02-22T08:08:39.499Z,3.70
2019-02-22T08:09:39.475Z,2.50
2019-02-22T08:10:39.477Z,2.90
2019-02-22T08:11:39.486Z,4.30
2019-02-22T08:12:39.446Z,3.40
2019-02-22T08:13:39.445Z,4.60
2019-02-22T08:14:39.438Z,3.40
2019-02-22T08:15:39.404Z,3.70
2019-02-22T08:16:39.390Z,3.60
2019-02-22T08:17:39.404Z,4.00
2019-02-22T08:18:39.391Z,3.30
2019-02-22T08:19:39.369Z,4.00
2019-02-22T08:20:39.422Z,3.60
2019-02-22T08:21:39.339Z,4.90
2019-02-22T08:22:39.328Z,4.20
2019-02-22T08:23:39.342Z,5.00
2019-02-22T08:24:39.323Z,3.80
2019-02-22T08:25:39.299Z,4.10
2019-02-22T08:26:39.283Z,3.60
2019-02-22T08:27:40.180Z,3.10
2019-02-22T08:28:39.268Z,3.40
2019-02-22T08:29:39.270Z,4.20
2019-02-22T08:30:39.254Z,4.10
2019-02-22T08:31:39.263Z,3.70
2019-02-22T08:32:39.210Z,3.00
2019-02-22T08:33:39.199Z,3.80
2019-02-22T08:34:39.216Z,3.80
2019-02-22T08:35:39.180Z,3.90
2019-02-22T08:36:39.182Z,3.10
2019-02-22T08:37:39.176Z,3.80
2019-02-22T08:38:39.148Z,4.50
2019-02-22T08:39:39.138Z,3.40
2019-02-22T08:40:39.161Z,3.10
2019-02-22T08:41:39.119Z,3.20
2019-02-22T08:42:39.108Z,2.80
2019-02-22T08:43:39.116Z,3.00
2019-02-22T08:44:39.084Z,2.60
2019-02-22T08:45:39.072Z,2.20
2019-02-22T08:46:39.084Z,2.20
2019-02-22T08:47:39.124Z,1.90
2019-02-22T08:48:39.039Z,2.80
2019-02-22T08:49:39.037Z,1.90
2019-02-22T08:50:39.016Z,2.30
2019-02-22T08:51:39.019Z,2.10
2019-02-22T08:52:38.997Z,2.20
2019-02-22T08:53:38.979Z,1.60
2019-02-22T08:54:46.580Z,1.70
2019-02-22T08:55:39.955Z,3.70
2019-02-22T08:56:38.983Z,1.40
2019-02-22T08:57:38.960Z,2.30
2019-02-22T08:58:38.926Z,2.50
2019-02-22T08:59:38.912Z,2.60
2019-02-22T09:00:38.900Z,5.10
2019-02-22T09:01:38.889Z,4.00
2019-02-22T09:02:38.930Z,4.00
2019-02-22T09:03:49.923Z,11.70
2019-02-22T09:04:38.855Z,24.90
2019-02-22T09:05:38.845Z,32.50
2019-02-22T09:06:38.826Z,13.10
2019-02-22T09:07:38.822Z,21.70
2019-02-22T09:08:38.840Z,5.30
2019-02-22T09:09:38.851Z,7.00
2019-02-22T09:10:38.792Z,9.00
2019-02-22T09:11:38.771Z,12.80
2019-02-22T09:12:38.764Z,10.60
2019-02-22T09:13:43.566Z,9.40
2019-02-22T09:14:39.777Z,5.50
2019-02-22T09:15:38.725Z,5.20
2019-02-22T09:16:38.745Z,7.00
2019-02-22T09:17:38.706Z,6.60
2019-02-22T09:18:38.692Z,5.20
2019-02-22T09:19:38.681Z,7.60
2019-02-22T09:20:38.678Z,6.80
2019-02-22T09:21:38.656Z,4.90
2019-02-22T09:22:38.675Z,5.70
2019-02-22T09:23:38.639Z,6.30
2019-02-22T09:24:38.627Z,5.10
2019-02-22T09:25:38.633Z,6.40
2019-02-22T09:26:38.603Z,6.70
2019-02-22T09:27:38.591Z,6.40
2019-02-22T09:28:38.605Z,6.30
2019-02-22T09:29:38.573Z,8.10
2019-02-22T09:30:38.561Z,7.20
2019-02-22T09:31:38.564Z,11.50
2019-02-22T09:32:38.539Z,20.50
2019-02-22T09:33:38.525Z,27.50
2019-02-22T09:34:38.537Z,69.60
2019-02-22T09:35:38.820Z,103.70
2019-02-22T09:36:38.517Z,130.70
2019-02-22T09:37:38.483Z,100.20
2019-02-22T09:38:38.466Z,127.40
2019-02-22T09:39:38.465Z,84.00
2019-02-22T09:40:38.494Z,135.90
2019-02-22T09:41:38.433Z,98.30
2019-02-22T09:42:38.444Z,96.80
2019-02-22T09:43:38.417Z,70.60
2019-02-22T09:44:38.408Z,44.80
2019-02-22T09:45:38.407Z,77.20
2019-02-22T09:46:38.464Z,71.60
2019-02-22T09:47:38.791Z,51.60
2019-02-22T09:48:38.368Z,57.40
2019-02-22T09:49:38.354Z,82.20
2019-02-22T09:50:38.344Z,53.50
2019-02-22T09:51:41.059Z,48.90
2019-02-22T09:52:38.337Z,70.70
2019-02-22T09:53:38.329Z,66.90
2019-02-22T09:54:38.290Z,64.90
2019-02-22T09:55:38.283Z,74.30
2019-02-22T09:56:38.279Z,40.30
2019-02-22T09:57:38.267Z,69.00
2019-02-22T09:58:38.293Z,58.10
2019-02-22T09:59:38.767Z,40.90
2019-02-22T10:00:38.229Z,22.20
2019-02-22T10:01:38.219Z,10.10
2019-02-22T10:02:38.221Z,29.00
2019-02-22T10:03:38.197Z,8.70
2019-02-22T10:04:38.226Z,9.70
2019-02-22T10:05:38.170Z,6.70
2019-02-22T10:06:38.162Z,7.10
2019-02-22T10:07:38.151Z,4.80
2019-02-22T10:08:38.147Z,5.90
2019-02-22T10:09:38.171Z,6.30
2019-02-22T10:10:38.143Z,4.70
2019-02-22T10:11:38.110Z,3.20
2019-02-22T10:12:38.095Z,4.40
2019-02-22T10:13:38.083Z,4.50
2019-02-22T10:14:38.074Z,4.40
2019-02-22T10:15:38.085Z,3.80
2019-02-22T10:16:38.066Z,3.50
2019-02-22T10:17:38.062Z,4.20
2019-02-22T10:18:38.029Z,3.90
2019-02-22T10:19:38.018Z,4.00
2019-02-22T10:20:38.010Z,3.00
2019-02-22T10:21:38.033Z,2.60
2019-02-22T10:22:38.001Z,3.00
2019-02-22T10:23:37.975Z,3.30
2019-02-22T10:24:37.967Z,4.30
2019-02-22T10:25:37.954Z,2.50
2019-02-22T10:26:37.972Z,2.60
2019-02-22T10:27:37.930Z,3.50
2019-02-22T10:28:38.017Z,3.00
2019-02-22T10:29:37.901Z,3.40
2019-02-22T10:30:37.897Z,3.20
2019-02-22T10:31:37.883Z,3.10
2019-02-22T10:32:37.892Z,4.00
2019-02-22T10:33:37.864Z,4.20
2019-02-22T10:34:37.881Z,3.70
2019-02-22T10:35:37.837Z,3.10
2019-02-22T10:36:45.146Z,3.40
2019-02-22T10:37:38.850Z,3.10
2019-02-22T10:38:37.833Z,4.60
2019-02-22T10:39:37.809Z,3.70
2019-02-22T10:40:39.354Z,3.50
2019-02-22T10:41:37.817Z,4.00
2019-02-22T10:42:37.764Z,4.80
2019-02-22T10:43:37.782Z,3.90
2019-02-22T10:44:37.739Z,4.00
2019-02-22T10:45:37.728Z,3.60
2019-02-22T10:46:37.722Z,3.50
2019-02-22T10:47:37.732Z,3.40
2019-02-22T10:48:37.701Z,4.10
2019-02-22T10:49:37.699Z,5.30
2019-02-22T10:50:37.676Z,5.20
2019-02-22T10:51:37.666Z,5.30
2019-02-22T10:52:37.769Z,5.30
2019-02-22T10:53:37.664Z,4.80
2019-02-22T10:54:37.635Z,5.20
2019-02-22T10:55:37.615Z,4.90
2019-02-22T10:56:39.247Z,4.00
2019-02-22T10:57:37.588Z,3.60
2019-02-22T10:58:37.581Z,4.40
2019-02-22T10:59:37.620Z,5.20
2019-02-22T11:00:37.556Z,5.10
2019-02-22T11:01:37.545Z,5.10
2019-02-22T11:02:37.530Z,6.10
2019-02-22T11:03:37.520Z,6.00
2019-02-22T11:04:37.522Z,5.20
2019-02-22T11:05:37.543Z,5.60
2019-02-22T11:06:37.496Z,5.30
2019-02-22T11:07:37.552Z,5.30
2019-02-22T11:08:37.472Z,6.80
2019-02-22T11:09:37.457Z,5.00
2019-02-22T11:10:37.458Z,5.30
2019-02-22T11:11:37.457Z,5.10
2019-02-22T11:12:37.432Z,6.10
2019-02-22T11:13:37.407Z,5.60
2019-02-22T11:14:37.404Z,5.20
2019-02-22T11:15:37.426Z,5.70
2019-02-22T11:16:37.378Z,4.80
2019-02-22T11:17:37.392Z,6.40
2019-02-22T11:18:39.326Z,5.40
2019-02-22T11:19:37.344Z,7.10
2019-02-22T11:20:37.335Z,6.30
2019-02-22T11:21:37.345Z,6.50
2019-02-22T11:22:37.313Z,6.10
2019-02-22T11:23:37.327Z,6.40
2019-02-22T11:24:37.281Z,5.40
2019-02-22T11:25:37.274Z,6.00
2019-02-22T11:26:37.290Z,5.20
2019-02-22T11:27:37.261Z,6.50
2019-02-22T11:28:37.260Z,6.10
2019-02-22T11:29:37.287Z,4.70
2019-02-22T11:30:37.215Z,5.80
2019-02-22T11:31:37.216Z,5.90
2019-02-22T11:32:37.211Z,5.80
2019-02-22T11:33:37.187Z,5.30
2019-02-22T11:34:37.172Z,5.10
2019-02-22T11:35:37.192Z,5.20
2019-02-22T11:36:37.155Z,5.30
2019-02-22T11:37:37.156Z,5.20
2019-02-22T11:38:37.134Z,5.40
2019-02-22T11:39:37.120Z,5.20
2019-02-22T11:40:37.110Z,5.30
2019-02-22T11:41:37.130Z,5.60
2019-02-22T11:42:37.113Z,4.80
2019-02-22T11:43:37.068Z,5.10
2019-02-22T11:44:40.193Z,4.80
2019-02-22T11:45:37.053Z,5.30
2019-02-22T11:46:37.038Z,6.00
2019-02-22T11:47:37.046Z,5.80
2019-02-22T11:48:37.045Z,5.40
2019-02-22T11:49:37.007Z,5.40
2019-02-22T11:50:36.994Z,4.70
2019-02-22T11:51:36.980Z,5.50
2019-02-22T11:52:36.976Z,6.10
2019-02-22T11:53:36.983Z,5.60
2019-02-22T11:54:36.957Z,6.40
2019-02-22T11:55:36.943Z,7.70
2019-02-22T11:56:36.924Z,8.90
2019-02-22T11:57:36.921Z,8.50
2019-02-22T11:58:36.904Z,7.40
2019-02-22T11:59:36.932Z,6.50
2019-02-22T12:00:36.882Z,6.20
2019-02-22T12:01:36.864Z,5.60
2019-02-22T12:02:36.864Z,6.10
2019-02-22T12:03:36.847Z,6.00
2019-02-22T12:04:36.838Z,5.70
2019-02-22T12:05:36.931Z,7.00
2019-02-22T12:06:36.806Z,6.20
2019-02-22T12:07:36.805Z,6.30
2019-02-22T12:08:36.801Z,6.20
2019-02-22T12:09:36.782Z,6.70
2019-02-22T12:10:36.802Z,7.40
2019-02-22T12:11:36.783Z,7.20
2019-02-22T12:12:36.753Z,6.70
2019-02-22T12:13:36.740Z,6.80
2019-02-22T12:14:36.723Z,6.30
2019-02-22T12:15:36.738Z,7.20
2019-02-22T12:16:36.713Z,6.40
2019-02-22T12:17:36.716Z,7.20
2019-02-22T12:18:36.821Z,7.10
2019-02-22T12:19:36.680Z,6.50
2019-02-22T12:20:36.659Z,7.40
2019-02-22T12:21:36.662Z,5.80
2019-02-22T12:22:36.639Z,6.70
2019-02-22T12:23:36.649Z,5.60
2019-02-22T12:24:36.620Z,6.00
2019-02-22T12:25:36.602Z,5.70
2019-02-22T12:26:36.617Z,6.80
2019-02-22T12:27:36.576Z,8.40
2019-02-22T12:28:36.577Z,6.10
2019-02-22T12:29:36.579Z,6.00
2019-02-22T12:30:36.550Z,6.70
2019-02-22T12:31:36.559Z,7.20
2019-02-22T12:32:39.351Z,6.60
2019-02-22T12:33:36.512Z,8.20
2019-02-22T12:34:36.509Z,8.60
2019-02-22T12:35:36.514Z,10.60
2019-02-22T12:36:36.485Z,8.20
2019-02-22T12:37:36.481Z,9.90
2019-02-22T12:38:36.453Z,8.30
2019-02-22T12:39:36.453Z,7.90
2019-02-22T12:40:36.438Z,9.70
2019-02-22T12:41:36.450Z,7.40
2019-02-22T12:42:36.441Z,9.60
2019-02-22T12:43:36.401Z,10.00
2019-02-22T12:44:36.385Z,7.60
2019-02-22T12:45:36.378Z,11.60
2019-02-22T12:46:36.375Z,10.20
2019-02-22T12:47:36.357Z,14.80
2019-02-22T12:48:36.392Z,11.40
2019-02-22T12:49:36.334Z,11.20
2019-02-22T12:50:36.322Z,10.90
2019-02-22T12:51:36.317Z,12.30
2019-02-22T12:52:36.301Z,10.70
2019-02-22T12:53:36.317Z,12.00
2019-02-22T12:54:36.305Z,11.50
2019-02-22T12:55:36.267Z,12.50
2019-02-22T12:57:05.849Z,14.50
2019-02-22T12:57:37.239Z,13.10
2019-02-22T12:58:36.231Z,15.40
2019-02-22T12:59:36.237Z,29.50
2019-02-22T13:00:36.234Z,29.30
2019-02-22T13:01:36.211Z,43.60
2019-02-22T13:02:36.189Z,58.70
2019-02-22T13:03:36.188Z,79.00
2019-02-22T13:04:36.193Z,49.00
2019-02-22T13:05:36.156Z,17.50
2019-02-22T13:06:36.156Z,17.40
2019-02-22T13:07:36.141Z,14.60
2019-02-22T13:08:36.120Z,16.80